Time;durP1;ratioP1;P1;durP2;ratioP2;P2;SDS_P1;SDS_P2;PMS_P1;PMS_P2;Temp;Humidity;BMP_temperature;BMP_pressure;BME280_temperature;BME280_humidity;BME280_pressure;Samples;Min_cycle;Max_cycle;Signal;HPM_P1;HPM_P2
2024/03/24 00:00:21;;;;;;;;;;;;;;;2.54;100.00;99561.28;5034991;28;20399;-67
2024/03/24 00:02:47;;;;;;;;;;;;;;;2.59;100.00;99561.69;5060815;28;19931;-67
2024/03/24 00:05:15;;;;;;;;;;;;;;;2.62;100.00;99558.78;5070399;28;19921;-64
2024/03/24 00:07:41;;;;;;;;;;;;;;;2.62;100.00;99564.06;5068155;28;19924;-66
2024/03/24 00:10:06;;;;;;;;;;;;;;;2.64;100.00;99568.19;5067081;28;19947;-67
2024/03/24 00:12:32;;;;;;;;;;;;;;;2.64;100.00;99560.31;5065271;28;19927;-69
2024/03/24 00:14:57;;;;;;;;;;;;;;;2.61;100.00;99563.22;5063052;28;19974;-65
2024/03/24 00:17:22;;;;;;;;;;;;;;;2.60;100.00;99571.22;5059757;28;20295;-68
2024/03/24 00:19:48;;;;;;;;;;;;;;;2.58;100.00;99574.00;5064945;28;19935;-67
2024/03/24 00:22:13;;;;;;;;;;;;;;;2.53;100.00;99572.75;5062476;28;19924;-66
2024/03/24 00:24:39;;;;;;;;;;;;;;;2.51;100.00;99570.28;5062391;28;19935;-65
2024/03/24 00:27:05;;;;;;;;;;;;;;;2.52;100.00;99569.31;5061070;28;20070;-67
2024/03/24 00:29:31;;;;;;;;;;;;;;;2.60;100.00;99577.34;5060779;28;19931;-67
2024/03/24 00:31:58;;;;;;;;;;;;;;;2.63;100.00;99577.06;5060062;28;19925;-65
2024/03/24 00:34:23;;;;;;;;;;;;;;;2.66;100.00;99571.50;5057714;28;19921;-66
2024/03/24 00:36:48;;;;;;;;;;;;;;;2.67;100.00;99567.91;5060502;28;20011;-68
2024/03/24 00:39:14;;;;;;;;;;;;;;;2.68;100.00;99568.75;5064112;28;19925;-64
2024/03/24 00:41:39;;;;;;;;;;;;;;;2.69;100.00;99565.97;5065015;28;19924;-66
2024/03/24 00:44:05;;;;;;;;;;;;;;;2.68;100.00;99571.38;5057638;28;19924;-66
2024/03/24 00:46:31;;;;;;;;;;;;;;;2.68;100.00;99574.81;5071161;28;19960;-66
2024/03/24 00:48:57;;;;;;;;;;;;;;;2.69;100.00;99568.59;5067340;28;19931;-66
2024/03/24 00:51:22;;;;;;;;;;;;;;;2.74;100.00;99569.00;5071899;28;20481;-67
2024/03/24 00:53:47;;;;;;;;;;;;;;;2.73;100.00;99569.13;5077566;28;20003;-66
2024/03/24 00:56:12;;;;;;;;;;;;;;;2.73;100.00;99571.75;5062473;28;19925;-65
2024/03/24 00:58:38;;;;;;;;;;;;;;;2.72;100.00;99570.94;5059366;28;19973;-67
2024/03/24 01:01:05;;;;;;;;;;;;;;;2.74;100.00;99574.25;5062525;28;19928;-65
2024/03/24 01:03:30;;;;;;;;;;;;;;;2.78;100.00;99565.09;5063441;28;19920;-67
2024/03/24 01:05:55;;;;;;;;;;;;;;;2.73;100.00;99567.34;5062282;28;19925;-67
2024/03/24 01:08:21;;;;;;;;;;;;;;;2.69;100.00;99565.97;5066411;28;19930;-64
2024/03/24 01:10:46;;;;;;;;;;;;;;;2.68;100.00;99569.56;5056354;28;19925;-64
2024/03/24 01:13:11;;;;;;;;;;;;;;;2.55;100.00;99563.75;5070367;28;19947;-67
2024/03/24 01:15:42;;;;;;;;;;;;;;;2.56;100.00;99562.78;5060783;28;19932;-68
2024/03/24 01:18:07;;;;;;;;;;;;;;;2.57;100.00;99559.19;5061000;28;20401;-70
2024/03/24 01:20:32;;;;;;;;;;;;;;;2.59;100.00;99559.88;5062598;28;19921;-68
2024/03/24 01:22:58;;;;;;;;;;;;;;;2.63;100.00;99553.41;5069529;28;19920;-69
2024/03/24 01:25:23;;;;;;;;;;;;;;;2.68;100.00;99556.41;5080558;28;19933;-66
2024/03/24 01:27:48;;;;;;;;;;;;;;;2.70;100.00;99557.09;5060397;28;20391;-67
2024/03/24 01:30:14;;;;;;;;;;;;;;;2.70;100.00;99557.09;5067213;28;20027;-66
2024/03/24 01:32:39;;;;;;;;;;;;;;;2.70;100.00;99554.47;5066050;28;19936;-66
2024/03/24 01:35:05;;;;;;;;;;;;;;;2.72;100.00;99549.91;5061872;28;20284;-67
2024/03/24 01:37:30;;;;;;;;;;;;;;;2.72;100.00;99549.91;5055932;28;19924;-71
2024/03/24 01:39:55;;;;;;;;;;;;;;;2.74;100.00;99547.97;5065410;28;20384;-66
2024/03/24 01:42:21;;;;;;;;;;;;;;;2.77;100.00;99542.41;5061252;28;19982;-65
2024/03/24 01:44:46;;;;;;;;;;;;;;;2.78;100.00;99546.69;5064919;28;20391;-67
2024/03/24 01:47:11;;;;;;;;;;;;;;;2.83;100.00;99540.19;5066445;28;19959;-68
2024/03/24 01:49:38;;;;;;;;;;;;;;;2.85;100.00;99540.88;5064848;28;20372;-65
2024/03/24 01:52:05;;;;;;;;;;;;;;;2.90;100.00;99542.13;5062763;28;19971;-66
2024/03/24 01:54:30;;;;;;;;;;;;;;;2.91;100.00;99537.69;5065399;28;19928;-66
2024/03/24 01:56:55;;;;;;;;;;;;;;;2.89;100.00;99537.84;5072817;28;20500;-65
2024/03/24 01:59:21;;;;;;;;;;;;;;;2.90;100.00;99536.03;5065965;28;19988;-67
2024/03/24 02:01:46;;;;;;;;;;;;;;;2.87;100.00;99534.50;5056749;28;20404;-65
2024/03/24 02:04:12;;;;;;;;;;;;;;;2.86;100.00;99532.84;5071410;28;19921;-65
2024/03/24 02:06:37;;;;;;;;;;;;;;;2.90;100.00;99541.28;5062819;28;20372;-69
2024/03/24 02:09:02;;;;;;;;;;;;;;;2.92;100.00;99528.81;5065567;28;20470;-69
2024/03/24 02:11:29;;;;;;;;;;;;;;;2.96;100.00;99535.44;5062119;28;19924;-64
2024/03/24 02:13:57;;;;;;;;;;;;;;;3.01;100.00;99538.47;5062722;28;19963;-67
2024/03/24 02:16:23;;;;;;;;;;;;;;;3.01;100.00;99526.16;5062384;28;20289;-66
2024/03/24 02:19:08;;;;;;;;;;;;;;;2.99;100.00;99529.91;5052005;28;19931;-67
2024/03/24 02:21:34;;;;;;;;;;;;;;;2.99;100.00;99538.63;5060169;28;19924;-64
2024/03/24 02:24:01;;;;;;;;;;;;;;;2.99;100.00;99545.69;5064833;28;19928;-67
2024/03/24 02:26:26;;;;;;;;;;;;;;;2.97;100.00;99547.63;5063306;28;20315;-66
2024/03/24 02:28:54;;;;;;;;;;;;;;;2.96;100.00;99543.34;5053485;28;19932;-67
2024/03/24 02:31:19;;;;;;;;;;;;;;;2.89;100.00;99536.97;5061476;28;19983;-68
2024/03/24 02:33:45;;;;;;;;;;;;;;;2.85;100.00;99540.88;5065144;28;20265;-66
2024/03/24 02:36:10;;;;;;;;;;;;;;;2.82;100.00;99547.25;5067521;28;20401;-65
2024/03/24 02:38:35;;;;;;;;;;;;;;;2.82;100.00;99547.25;5067888;28;20443;-66
2024/03/24 02:41:01;;;;;;;;;;;;;;;2.78;100.00;99538.81;5058727;28;20411;-67
2024/03/24 02:43:26;;;;;;;;;;;;;;;2.76;100.00;99539.94;5064315;28;19931;-64
2024/03/24 02:45:55;;;;;;;;;;;;;;;2.71;100.00;99535.09;5065563;28;19925;-66
2024/03/24 02:48:20;;;;;;;;;;;;;;;2.71;100.00;99531.66;5060881;28;19929;-66
2024/03/24 02:50:45;;;;;;;;;;;;;;;2.74;100.00;99542.69;5062090;28;19925;-66
2024/03/24 02:53:11;;;;;;;;;;;;;;;2.76;100.00;99540.75;5062810;28;19921;-68
2024/03/24 02:55:43;;;;;;;;;;;;;;;2.75;100.00;99548.78;5064217;28;19967;-68
2024/03/24 02:58:09;;;;;;;;;;;;;;;2.67;100.00;99540.78;5067127;28;19925;-68
2024/03/24 03:00:34;;;;;;;;;;;;;;;2.69;100.00;99539.69;5065897;28;20395;-66
2024/03/24 03:02:59;;;;;;;;;;;;;;;2.69;100.00;99544.09;5062270;28;20388;-67
2024/03/24 03:05:24;;;;;;;;;;;;;;;2.68;100.00;99537.19;5057115;28;19932;-66
2024/03/24 03:07:50;;;;;;;;;;;;;;;2.73;100.00;99540.22;5057612;28;19921;-65
2024/03/24 03:10:16;;;;;;;;;;;;;;;2.63;100.00;99540.25;5054777;28;19931;-65
2024/03/24 03:12:42;;;;;;;;;;;;;;;2.60;100.00;99540.53;5063478;28;19963;-63
2024/03/24 03:15:07;;;;;;;;;;;;;;;2.63;100.00;99544.69;5062071;28;19921;-65
2024/03/24 03:17:33;;;;;;;;;;;;;;;2.72;100.00;99543.81;5068164;28;19944;-67
2024/03/24 03:20:00;;;;;;;;;;;;;;;2.78;100.00;99543.25;5070764;28;20391;-67
2024/03/24 03:22:26;;;;;;;;;;;;;;;2.82;100.00;99538.53;5071458;28;19928;-67
2024/03/24 03:24:53;;;;;;;;;;;;;;;2.83;100.00;99538.38;5062930;28;19925;-68
2024/03/24 03:27:18;;;;;;;;;;;;;;;2.85;100.00;99536.44;5065017;28;20019;-64
2024/03/24 03:29:43;;;;;;;;;;;;;;;2.89;100.00;99539.59;5065065;28;20013;-65
2024/03/24 03:32:09;;;;;;;;;;;;;;;2.95;100.00;99541.69;5055743;28;19982;-67
2024/03/24 03:34:34;;;;;;;;;;;;;;;2.96;100.00;99543.34;5065292;28;19924;-67
2024/03/24 03:37:00;;;;;;;;;;;;;;;2.94;100.00;99542.66;5054398;28;19931;-66
2024/03/24 03:39:25;;;;;;;;;;;;;;;2.95;100.00;99545.16;5068221;28;19920;-66
2024/03/24 03:41:52;;;;;;;;;;;;;;;2.92;100.00;99540.19;5062567;28;20020;-66
2024/03/24 03:44:18;;;;;;;;;;;;;;;2.90;100.00;99542.13;5062901;28;20019;-67
2024/03/24 03:46:43;;;;;;;;;;;;;;;2.89;100.00;99536.97;5054947;28;20016;-71
2024/03/24 03:49:14;;;;;;;;;;;;;;;2.85;100.00;99539.06;5057735;28;20455;-68
2024/03/24 03:51:39;;;;;;;;;;;;;;;2.88;100.00;99541.41;5062773;28;19925;-68
2024/03/24 03:54:05;;;;;;;;;;;;;;;2.89;100.00;99539.59;5061494;28;20292;-65
2024/03/24 03:56:30;;;;;;;;;;;;;;;2.90;100.00;99542.13;5059561;28;19932;-69
2024/03/24 03:58:56;;;;;;;;;;;;;;;2.91;100.00;99541.16;5070058;28;19925;-66
2024/03/24 04:01:21;;;;;;;;;;;;;;;2.93;100.00;99541.00;5061869;28;20388;-67
2024/03/24 04:03:46;;;;;;;;;;;;;;;2.89;100.00;99545.72;5061037;28;19925;-65
2024/03/24 04:06:12;;;;;;;;;;;;;;;2.90;100.00;99546.56;5062370;28;20396;-65
2024/03/24 04:08:39;;;;;;;;;;;;;;;2.94;100.00;99543.50;5062411;28;20645;-67
2024/03/24 04:11:05;;;;;;;;;;;;;;;2.97;100.00;99547.63;5061998;28;19944;-65
2024/03/24 04:13:30;;;;;;;;;;;;;;;2.90;100.00;99557.06;5045268;28;20356;-66
2024/03/24 04:15:55;;;;;;;;;;;;;;;2.90;100.00;99551.81;5066146;28;20049;-67
2024/03/24 04:18:21;;;;;;;;;;;;;;;2.89;100.00;99560.63;5064504;28;19924;-66
2024/03/24 04:20:46;;;;;;;;;;;;;;;2.91;100.00;99558.72;5072475;28;19924;-66
2024/03/24 04:23:11;;;;;;;;;;;;;;;2.89;100.00;99555.38;5062000;28;20011;-67
2024/03/24 04:25:37;;;;;;;;;;;;;;;2.90;100.00;99559.69;5065283;28;19924;-65
2024/03/24 04:28:03;;;;;;;;;;;;;;;2.82;100.00;99556.94;5066930;28;19925;-67
2024/03/24 04:30:32;;;;;;;;;;;;;;;2.87;100.00;99559.97;5062569;28;20415;-66
2024/03/24 04:32:58;;;;;;;;;;;;;;;2.89;100.00;99560.63;5057641;28;19924;-66
2024/03/24 04:35:23;;;;;;;;;;;;;;;2.90;100.00;99557.91;5067968;28;19924;-66
2024/03/24 04:37:49;;;;;;;;;;;;;;;2.92;100.00;99555.13;5057139;28;20399;-66
2024/03/24 04:40:14;;;;;;;;;;;;;;;3.00;100.00;99561.31;5065398;28;19921;-65
2024/03/24 04:42:40;;;;;;;;;;;;;;;3.09;100.00;99559.63;5071149;28;19929;-66
2024/03/24 04:45:07;;;;;;;;;;;;;;;3.16;100.00;99558.06;5063254;28;19921;-67
2024/03/24 04:47:33;;;;;;;;;;;;;;;3.23;100.00;99559.16;5065301;28;19973;-65
2024/03/24 04:49:58;;;;;;;;;;;;;;;3.28;100.00;99551.66;5066048;28;19920;-67
2024/03/24 04:52:24;;;;;;;;;;;;;;;3.27;99.56;99555.25;5068632;28;19924;-67
2024/03/24 04:54:50;;;;;;;;;;;;;;;3.25;98.87;99557.22;5064083;28;19950;-66
2024/03/24 04:57:16;;;;;;;;;;;;;;;3.29;100.00;99555.94;5073386;28;19924;-66
2024/03/24 04:59:42;;;;;;;;;;;;;;;3.35;100.00;99552.72;5063794;28;20158;-68
2024/03/24 05:02:08;;;;;;;;;;;;;;;3.34;97.71;99555.50;5065280;28;19925;-67
2024/03/24 05:04:35;;;;;;;;;;;;;;;3.39;99.70;99556.72;5056976;28;20068;-67
2024/03/24 05:07:00;;;;;;;;;;;;;;;3.46;98.01;99561.38;5062833;28;19933;-67
2024/03/24 05:09:25;;;;;;;;;;;;;;;3.41;96.74;99560.03;5059757;28;19965;-67
2024/03/24 05:11:51;;;;;;;;;;;;;;;3.44;97.43;99561.53;5066868;28;19932;-64
2024/03/24 05:14:17;;;;;;;;;;;;;;;3.47;98.23;99555.16;5058855;28;19929;-68
2024/03/24 05:16:42;;;;;;;;;;;;;;;3.52;97.05;99566.09;5063544;28;19936;-67
2024/03/24 05:19:07;;;;;;;;;;;;;;;3.53;96.92;99573.84;5064510;28;19932;-64
2024/03/24 05:21:34;;;;;;;;;;;;;;;3.53;96.79;99562.50;5063040;28;19932;-67
2024/03/24 05:24:00;;;;;;;;;;;;;;;3.57;97.57;99561.22;5068099;28;19931;-64
2024/03/24 05:26:26;;;;;;;;;;;;;;;3.58;95.04;99561.06;5056273;28;20020;-68
2024/03/24 05:28:51;;;;;;;;;;;;;;;3.64;97.35;99563.09;5062320;28;20023;-66
2024/03/24 05:31:16;;;;;;;;;;;;;;;3.68;96.76;99576.78;5063917;28;19935;-66
2024/03/24 05:33:42;;;;;;;;;;;;;;;3.67;94.56;99573.34;5062358;28;20414;-65
2024/03/24 05:36:08;;;;;;;;;;;;;;;3.65;93.91;99569.19;5063343;28;20051;-65
2024/03/24 05:38:34;;;;;;;;;;;;;;;3.60;93.29;99571.44;5061180;28;20427;-66
2024/03/24 05:41:00;;;;;;;;;;;;;;;3.55;93.40;99576.31;5062132;28;19929;-66
2024/03/24 05:43:26;;;;;;;;;;;;;;;3.52;94.24;99574.81;5058548;28;19921;-66
2024/03/24 05:45:54;;;;;;;;;;;;;;;3.56;94.94;99575.34;5062123;28;19950;-66
2024/03/24 05:48:23;;;;;;;;;;;;;;;3.64;95.50;99570.16;5076031;28;20256;-66
2024/03/24 05:51:09;;;;;;;;;;;;;;;3.75;95.71;99580.50;5044065;28;19928;-66
2024/03/24 05:53:34;;;;;;;;;;;;;;;3.83;94.67;99577.13;5061930;28;20460;-68
2024/03/24 05:56:00;;;;;;;;;;;;;;;3.83;93.94;99588.50;5063217;28;20040;-64
2024/03/24 05:58:25;;;;;;;;;;;;;;;3.84;94.05;99591.97;5061980;28;20307;-66
2024/03/24 06:00:51;;;;;;;;;;;;;;;3.87;94.26;99584.59;5067947;28;19971;-67
2024/03/24 06:03:16;;;;;;;;;;;;;;;3.91;95.18;99590.38;5066164;28;19920;-67
2024/03/24 06:05:41;;;;;;;;;;;;;;;3.95;94.01;99595.19;5059156;28;19982;-67
2024/03/24 06:08:10;;;;;;;;;;;;;;;4.02;94.19;99595.44;5069785;28;19924;-65
2024/03/24 06:10:42;;;;;;;;;;;;;;;4.04;93.34;99594.31;5068075;28;19920;-64
2024/03/24 06:13:08;;;;;;;;;;;;;;;3.98;92.18;99594.06;5059387;28;19924;-68
2024/03/24 06:15:33;;;;;;;;;;;;;;;3.97;94.14;99595.88;5061898;28;20046;-66
2024/03/24 06:18:05;;;;;;;;;;;;;;;3.92;93.25;99597.31;5059649;28;19928;-67
2024/03/24 06:20:34;;;;;;;;;;;;;;;3.90;92.65;99597.47;5062337;28;19975;-66
2024/03/24 06:23:01;;;;;;;;;;;;;;;4.01;93.60;99591.97;5056839;28;20335;-67
2024/03/24 06:25:27;;;;;;;;;;;;;;;4.07;91.90;99600.28;5065242;28;19931;-66
2024/03/24 06:27:52;;;;;;;;;;;;;;;4.12;92.83;99598.84;5060821;28;19928;-67
2024/03/24 06:30:17;;;;;;;;;;;;;;;4.18;91.42;99597.41;5064371;28;19925;-68
2024/03/24 06:32:42;;;;;;;;;;;;;;;4.22;91.09;99602.22;5064147;28;19924;-66
2024/03/24 06:35:11;;;;;;;;;;;;;;;4.15;91.02;99614.34;5064125;28;20268;-70
2024/03/24 06:37:38;;;;;;;;;;;;;;;4.13;92.63;99612.84;5068912;28;19927;-68
2024/03/24 06:40:04;;;;;;;;;;;;;;;4.17;93.64;99599.22;5069717;28;21197;-66
2024/03/24 06:42:29;;;;;;;;;;;;;;;4.18;94.13;99602.69;5071121;28;19931;-64
2024/03/24 06:44:56;;;;;;;;;;;;;;;4.27;93.46;99607.88;5070061;28;19924;-67
2024/03/24 06:47:22;;;;;;;;;;;;;;;4.38;92.97;99600.75;5068007;28;19927;-65
2024/03/24 06:49:47;;;;;;;;;;;;;;;4.53;92.47;99607.94;5069116;28;19929;-67
2024/03/24 06:52:12;;;;;;;;;;;;;;;4.64;92.27;99605.09;5071134;28;19966;-66
2024/03/24 06:54:37;;;;;;;;;;;;;;;4.60;89.81;99602.88;5081920;28;20006;-65
2024/03/24 06:57:04;;;;;;;;;;;;;;;4.63;91.86;99606.06;5069989;28;19926;-66
2024/03/24 06:59:29;;;;;;;;;;;;;;;4.74;91.79;99609.44;5070065;28;19931;-69
2024/03/24 07:01:54;;;;;;;;;;;;;;;4.93;92.70;99604.81;5052817;28;19920;-70
2024/03/24 07:04:19;;;;;;;;;;;;;;;5.07;91.40;99610.50;5070380;28;20293;-68
2024/03/24 07:06:45;;;;;;;;;;;;;;;5.03;91.08;99603.88;5071839;28;20322;-67
2024/03/24 07:09:10;;;;;;;;;;;;;;;4.99;90.58;99600.72;5066019;28;19956;-69
2024/03/24 07:11:35;;;;;;;;;;;;;;;5.07;90.31;99598.13;5055105;28;19972;-68
2024/03/24 07:14:01;;;;;;;;;;;;;;;5.08;89.84;99596.31;5086850;28;19927;-70
2024/03/24 07:16:26;;;;;;;;;;;;;;;5.23;90.57;99595.59;5063255;28;19931;-68
2024/03/24 07:18:51;;;;;;;;;;;;;;;5.32;89.90;99593.81;5064852;28;20069;-68
2024/03/24 07:21:17;;;;;;;;;;;;;;;5.27;89.53;99602.22;5068376;28;19973;-67
2024/03/24 07:23:42;;;;;;;;;;;;;;;5.20;90.00;99605.59;5067606;28;20351;-68
2024/03/24 07:26:07;;;;;;;;;;;;;;;5.08;91.22;99606.88;5067376;28;19931;-69
2024/03/24 07:28:33;;;;;;;;;;;;;;;5.09;91.60;99614.63;5071131;28;20054;-67
2024/03/24 07:30:58;;;;;;;;;;;;;;;5.10;90.14;99616.28;5070159;28;20070;-69
2024/03/24 07:33:23;;;;;;;;;;;;;;;5.02;91.16;99618.88;5069889;28;19924;-68
2024/03/24 07:35:49;;;;;;;;;;;;;;;5.05;92.59;99629.13;5070104;28;19931;-68
2024/03/24 07:38:14;;;;;;;;;;;;;;;5.15;92.58;99621.91;5069703;28;20355;-69
2024/03/24 07:40:39;;;;;;;;;;;;;;;5.16;91.17;99631.50;5069067;28;20371;-70
2024/03/24 07:43:05;;;;;;;;;;;;;;;4.92;91.47;99640.09;5071397;28;20459;-70
2024/03/24 07:45:31;;;;;;;;;;;;;;;4.82;92.17;99638.50;5070018;28;20407;-70
2024/03/24 07:47:56;;;;;;;;;;;;;;;4.66;93.74;99642.69;5072084;28;19928;-68
2024/03/24 07:50:21;;;;;;;;;;;;;;;4.56;95.74;99638.44;5073352;28;19947;-68
2024/03/24 07:52:47;;;;;;;;;;;;;;;4.61;97.63;99637.00;5059307;28;19960;-68
2024/03/24 07:55:12;;;;;;;;;;;;;;;4.73;97.36;99627.06;5058950;28;19975;-70
2024/03/24 07:57:38;;;;;;;;;;;;;;;4.80;96.89;99629.91;5061098;28;19960;-69
2024/03/24 08:00:06;;;;;;;;;;;;;;;4.93;96.94;99627.72;5073386;28;19978;-69
2024/03/24 08:02:31;;;;;;;;;;;;;;;5.09;95.78;99619.91;5073514;28;20012;-71
2024/03/24 08:04:57;;;;;;;;;;;;;;;5.23;94.60;99629.91;5069264;28;20019;-71
2024/03/24 08:07:22;;;;;;;;;;;;;;;5.28;93.85;99627.63;5060940;28;19943;-77
2024/03/24 08:09:47;;;;;;;;;;;;;;;5.17;93.21;99627.88;5049138;28;19929;-72
2024/03/24 08:12:13;;;;;;;;;;;;;;;5.14;92.71;99627.34;5062199;28;20744;-71
2024/03/24 08:14:41;;;;;;;;;;;;;;;5.03;91.72;99627.63;5044730;28;19949;-72
2024/03/24 08:17:06;;;;;;;;;;;;;;;4.98;92.50;99621.00;5062917;28;20295;-69
2024/03/24 08:19:31;;;;;;;;;;;;;;;4.97;93.31;99629.06;5071424;28;19920;-72
2024/03/24 08:21:57;;;;;;;;;;;;;;;4.99;94.09;99627.09;5074285;28;20387;-70
2024/03/24 08:24:23;;;;;;;;;;;;;;;5.13;94.01;99626.53;5072860;28;19931;-67
2024/03/24 08:26:49;;;;;;;;;;;;;;;5.22;92.58;99630.91;5073053;28;20399;-68
2024/03/24 08:29:14;;;;;;;;;;;;;;;5.30;92.72;99627.47;5075091;28;19920;-68
2024/03/24 08:31:39;;;;;;;;;;;;;;;5.26;89.48;99626.94;5073324;28;20318;-70
2024/03/24 08:34:04;;;;;;;;;;;;;;;5.26;91.06;99628.75;5074358;28;20384;-66
2024/03/24 08:36:30;;;;;;;;;;;;;;;5.31;90.44;99625.66;5074561;28;19929;-68
2024/03/24 08:38:55;;;;;;;;;;;;;;;5.43;91.36;99627.84;5071042;28;20028;-67
2024/03/24 08:41:20;;;;;;;;;;;;;;;5.51;90.03;99629.72;5072850;28;20344;-69
2024/03/24 08:43:46;;;;;;;;;;;;;;;5.58;88.02;99625.47;5071831;28;20333;-70
2024/03/24 08:46:13;;;;;;;;;;;;;;;5.61;89.27;99625.16;5073054;28;20026;-69
2024/03/24 08:48:38;;;;;;;;;;;;;;;5.81;89.09;99631.84;5075224;28;19920;-69
2024/03/24 08:51:04;;;;;;;;;;;;;;;5.91;88.72;99631.72;5070728;28;19931;-67
2024/03/24 08:53:29;;;;;;;;;;;;;;;6.06;88.54;99630.13;5071101;28;19921;-68
2024/03/24 08:55:54;;;;;;;;;;;;;;;6.18;87.50;99620.09;5071923;28;19925;-69
2024/03/24 08:58:20;;;;;;;;;;;;;;;6.23;84.00;99620.41;5072820;28;19964;-67
2024/03/24 09:00:50;;;;;;;;;;;;;;;6.11;84.81;99617.25;5073584;28;19933;-71
2024/03/24 09:03:15;;;;;;;;;;;;;;;6.19;83.61;99622.56;5072247;28;20292;-68
2024/03/24 09:05:41;;;;;;;;;;;;;;;6.09;82.99;99619.25;5055090;28;20028;-72
2024/03/24 09:08:07;;;;;;;;;;;;;;;6.04;82.45;99613.59;5072756;28;19981;-73
2024/03/24 09:10:32;;;;;;;;;;;;;;;6.16;83.19;99614.13;5073552;28;19931;-71
2024/03/24 09:12:57;;;;;;;;;;;;;;;6.06;82.20;99613.44;5070239;28;19944;-68
2024/03/24 09:15:23;;;;;;;;;;;;;;;6.14;83.78;99611.66;5072204;28;19924;-70
2024/03/24 09:17:48;;;;;;;;;;;;;;;5.91;81.97;99613.22;5070898;28;19994;-72
2024/03/24 09:20:15;;;;;;;;;;;;;;;5.73;83.59;99617.75;5069735;28;19925;-70
2024/03/24 09:22:41;;;;;;;;;;;;;;;5.87;84.49;99612.69;5071518;28;20023;-70
2024/03/24 09:25:08;;;;;;;;;;;;;;;5.99;83.21;99617.72;5070505;28;20392;-71
2024/03/24 09:27:33;;;;;;;;;;;;;;;6.15;82.92;99617.75;5070468;28;20387;-68
2024/03/24 09:29:58;;;;;;;;;;;;;;;6.38;83.84;99624.09;5072470;28;19924;-69
2024/03/24 09:32:24;;;;;;;;;;;;;;;6.53;82.52;99622.44;5071577;28;19920;-67
2024/03/24 09:34:50;;;;;;;;;;;;;;;6.67;81.01;99628.09;5069021;28;20242;-69
2024/03/24 09:37:16;;;;;;;;;;;;;;;6.67;78.97;99617.50;5072266;28;19924;-69
2024/03/24 09:39:41;;;;;;;;;;;;;;;6.61;79.36;99615.50;5072740;28;20303;-68
2024/03/24 09:42:10;;;;;;;;;;;;;;;6.50;78.73;99614.84;5072542;28;19966;-68
2024/03/24 09:44:37;;;;;;;;;;;;;;;6.45;78.89;99618.97;5073355;28;19977;-65
2024/03/24 09:47:03;;;;;;;;;;;;;;;6.28;77.88;99617.28;5072676;28;19924;-69
2024/03/24 09:49:30;;;;;;;;;;;;;;;6.18;79.95;99617.44;5071647;28;19931;-69
2024/03/24 09:51:59;;;;;;;;;;;;;;;6.02;79.12;99618.22;5081434;28;20376;-66
2024/03/24 09:54:25;;;;;;;;;;;;;;;5.90;77.49;99620.34;5070886;28;19928;-67
2024/03/24 09:56:50;;;;;;;;;;;;;;;5.88;78.47;99617.00;5069733;28;19928;-68
2024/03/24 09:59:16;;;;;;;;;;;;;;;5.98;78.44;99616.06;5067117;28;19970;-70
2024/03/24 10:01:44;;;;;;;;;;;;;;;5.98;76.57;99608.94;5070268;28;20052;-68
2024/03/24 10:04:10;;;;;;;;;;;;;;;6.10;76.49;99614.78;5072097;28;20518;-69
2024/03/24 10:06:36;;;;;;;;;;;;;;;6.05;74.27;99609.13;5070338;28;19951;-70
2024/03/24 10:09:02;;;;;;;;;;;;;;;5.90;70.53;99609.75;5071463;28;20276;-69
2024/03/24 10:11:30;;;;;;;;;;;;;;;5.85;71.32;99612.03;5065551;28;20340;-69
2024/03/24 10:13:56;;;;;;;;;;;;;;;5.84;71.15;99613.03;5068042;28;20010;-70
2024/03/24 10:16:22;;;;;;;;;;;;;;;5.89;73.62;99618.69;5070166;28;19970;-70
2024/03/24 10:18:48;;;;;;;;;;;;;;;6.07;74.90;99615.06;5052036;28;20283;-67
2024/03/24 10:21:14;;;;;;;;;;;;;;;6.22;70.64;99616.94;5070031;28;20286;-69
2024/03/24 10:23:40;;;;;;;;;;;;;;;6.32;69.26;99603.56;5071189;28;19927;-68
2024/03/24 10:26:05;;;;;;;;;;;;;;;6.23;67.58;99612.47;5070959;28;20019;-67
2024/03/24 10:28:31;;;;;;;;;;;;;;;6.21;70.84;99606.53;5072237;28;20025;-66
2024/03/24 10:31:05;;;;;;;;;;;;;;;6.31;70.06;99612.50;5064192;28;19931;-68
2024/03/24 10:33:34;;;;;;;;;;;;;;;6.58;70.88;99610.53;5059564;28;19925;-66
2024/03/24 10:36:00;;;;;;;;;;;;;;;6.81;66.96;99603.59;5058887;28;20334;-69
2024/03/24 10:38:27;;;;;;;;;;;;;;;6.79;64.42;99605.56;5083469;28;19928;-67
2024/03/24 10:40:55;;;;;;;;;;;;;;;6.79;65.54;99610.88;5058347;28;20015;-68
2024/03/24 10:43:21;;;;;;;;;;;;;;;6.85;68.56;99607.56;5066684;28;19935;-69
2024/03/24 10:45:46;;;;;;;;;;;;;;;6.90;67.88;99596.47;5067646;28;19959;-69
2024/03/24 10:48:14;;;;;;;;;;;;;;;6.92;68.35;99605.88;5063362;28;19929;-69
2024/03/24 10:50:40;;;;;;;;;;;;;;;7.02;69.30;99605.72;5064980;28;20019;-68
2024/03/24 10:53:10;;;;;;;;;;;;;;;7.17;68.70;99608.50;5070432;28;19921;-67
2024/03/24 10:55:36;;;;;;;;;;;;;;;7.23;67.73;99608.66;5067758;28;19963;-71
2024/03/24 10:58:02;;;;;;;;;;;;;;;7.31;68.08;99605.16;5052884;28;20032;-70
2024/03/24 11:00:28;;;;;;;;;;;;;;;7.36;66.49;99602.84;5058091;28;20023;-68
2024/03/24 11:02:57;;;;;;;;;;;;;;;7.24;64.42;99606.84;5060231;28;19924;-69
2024/03/24 11:05:23;;;;;;;;;;;;;;;7.22;66.66;99601.69;5069794;28;19925;-68
2024/03/24 11:07:50;;;;;;;;;;;;;;;7.35;65.32;99598.53;5053361;28;19928;-68
2024/03/24 11:10:15;;;;;;;;;;;;;;;7.55;66.83;99613.03;5068546;28;19978;-68
2024/03/24 11:12:41;;;;;;;;;;;;;;;7.68;64.68;99602.72;5070494;28;19925;-68
2024/03/24 11:15:09;;;;;;;;;;;;;;;7.57;63.42;99608.41;5069968;28;20291;-70
2024/03/24 11:17:35;;;;;;;;;;;;;;;7.38;62.84;99604.31;5068416;28;19966;-71
2024/03/24 11:20:03;;;;;;;;;;;;;;;7.45;65.57;99602.63;5085817;28;20073;-71
2024/03/24 11:22:35;;;;;;;;;;;;;;;7.43;65.69;99598.50;5070396;28;19939;-67
2024/03/24 11:25:02;;;;;;;;;;;;;;;7.30;64.77;99595.56;5067587;28;19935;-70
2024/03/24 11:27:30;;;;;;;;;;;;;;;7.27;65.59;99598.56;5068905;28;19924;-68
2024/03/24 11:29:56;;;;;;;;;;;;;;;7.23;65.74;99591.94;5066558;28;20026;-69
2024/03/24 11:32:23;;;;;;;;;;;;;;;7.28;64.45;99597.56;5069775;28;20380;-72
2024/03/24 11:34:56;;;;;;;;;;;;;;;7.19;64.63;99594.09;5084013;28;20380;-68
2024/03/24 11:37:29;;;;;;;;;;;;;;;7.18;66.25;99584.50;5083214;28;20314;-68
2024/03/24 11:39:54;;;;;;;;;;;;;;;7.18;64.68;99583.66;5066391;28;19928;-65
2024/03/24 11:42:27;;;;;;;;;;;;;;;7.21;64.54;99578.03;5070406;28;20449;-70
2024/03/24 11:44:52;;;;;;;;;;;;;;;7.11;65.95;99573.75;5069629;28;20005;-71
2024/03/24 11:47:18;;;;;;;;;;;;;;;7.02;66.42;99573.97;5072240;28;19963;-69
2024/03/24 11:49:49;;;;;;;;;;;;;;;6.92;63.12;99578.59;5068532;28;19924;-68
2024/03/24 11:52:18;;;;;;;;;;;;;;;6.86;65.35;99582.75;5062826;28;19978;-72
2024/03/24 11:54:47;;;;;;;;;;;;;;;6.90;65.81;99576.13;5060578;28;19936;-70
2024/03/24 11:57:12;;;;;;;;;;;;;;;6.88;65.31;99586.03;5060338;28;19921;-71
2024/03/24 11:59:41;;;;;;;;;;;;;;;6.88;66.96;99578.09;5082305;28;19924;-69
2024/03/24 12:02:07;;;;;;;;;;;;;;;7.09;66.75;99575.75;5049111;28;19925;-72
2024/03/24 12:04:32;;;;;;;;;;;;;;;7.38;66.93;99582.28;5066872;28;19942;-75
2024/03/24 12:06:59;;;;;;;;;;;;;;;7.64;66.42;99574.91;5058002;28;20293;-70
2024/03/24 12:09:26;;;;;;;;;;;;;;;7.82;66.00;99571.19;5059718;28;19967;-71
2024/03/24 12:11:54;;;;;;;;;;;;;;;7.94;65.90;99564.50;5055204;28;19925;-72
2024/03/24 12:14:23;;;;;;;;;;;;;;;8.05;66.40;99572.03;5052228;28;19924;-74
2024/03/24 12:16:48;;;;;;;;;;;;;;;7.98;65.18;99568.44;5052687;28;20435;-71
2024/03/24 12:19:14;;;;;;;;;;;;;;;7.80;65.01;99565.22;5061497;28;20111;-70
2024/03/24 12:21:39;;;;;;;;;;;;;;;7.66;64.62;99562.31;5057819;28;19936;-76
2024/03/24 12:24:05;;;;;;;;;;;;;;;7.55;63.19;99560.06;5068833;28;20026;-72
2024/03/24 12:26:30;;;;;;;;;;;;;;;7.53;64.75;99556.75;5063839;28;20018;-75
2024/03/24 12:28:57;;;;;;;;;;;;;;;7.56;61.02;99553.75;5069905;28;19927;-75
2024/03/24 12:31:22;;;;;;;;;;;;;;;7.62;63.14;99549.59;5061859;28;20468;-72
2024/03/24 12:33:50;;;;;;;;;;;;;;;7.80;61.08;99562.56;5057630;28;19925;-69
2024/03/24 12:36:16;;;;;;;;;;;;;;;7.97;60.43;99561.50;5054007;28;20011;-71
2024/03/24 12:38:42;;;;;;;;;;;;;;;8.02;60.43;99557.31;5061053;28;19920;-66
2024/03/24 12:41:07;;;;;;;;;;;;;;;7.85;60.03;99573.50;5068742;28;19975;-68
2024/03/24 12:43:33;;;;;;;;;;;;;;;7.77;62.02;99566.38;5067004;28;19947;-67
2024/03/24 12:45:59;;;;;;;;;;;;;;;7.74;61.66;99564.91;5072035;28;20259;-70